首页
METAR-TAF:

METAR-TAF

机场 :

伦敦斯坦斯特德机场

坦斯特德機場, 英格兰

纬度: 51-53N, 经度: 000-14E, 海拔: 106米

当前天气观测

该预报发布于28分钟前的20:50 UTC
风速14节,风向北转西北
温度 10°C
湿度 76%
气压 1011 hPa
能见度10公里或以上
多云层高于2000英尺
阴天层高于4000英尺

METAR: EGSS 262050Z AUTO 33014KT 9999 BKN020 OVC040 10/06 Q1011

时间: 22:18 (21:18 UTC)

预报

该预报发布于3小时和11分钟前的18:07 UTC
预报有效从26日的 18点(UTC)到 27日的 24点(UTC)
风速15节,风向北转西北
能见度10公里或以上
多云层高于1400英尺
成为
从 26日的 18点(UTC)到 26日的 21点(UTC)
多云层高于2000英尺
短暂存在
从 26日的 18点(UTC)到 27日的 24点(UTC)
风速18节,风向北转西北,有时为32节阵风
几率 40% :
短暂存在
从 27日的 00点(UTC)到 27日的 15点(UTC)
多云层高于1400英尺
成为
从 27日的 15点(UTC)到 27日的 18点(UTC)
多云层高于1200英尺
成为
从 27日的 18点(UTC)到 27日的 21点(UTC)
多云层高于800英尺
短暂存在
从 27日的 18点(UTC)到 27日的 24点(UTC)
能見度: 9000
小雨
几率 30%
从 27日的 21点(UTC)到 27日的 24点(UTC)
多云层高于400英尺

TAF: EGSS 261807Z 2618/2724 33015KT 9999 BKN014 BECMG 2618/2621 BKN020 TEMPO 2618/2724 34018G32KT PROB40 TEMPO 2700/2715 BKN014 BECMG 2715/2718 BKN012 BECMG 2718/2721 BKN008 TEMPO 2718/2724 9000 -RA PROB30 2721/2724 BKN004

超过4000个机场的气象观测和天气预报(METAR&TAF报告)。

可查询的气象台以黄色和红色小点在地图上表示。

将鼠标移到小点上方,可查看气象台名称。

然后点击查看天气观测和预报。

如需切换地图:点击带黑十字的绿色按钮放大地图;点击带横线的绿色按钮缩小地图;或者点击绿色箭头查看邻近地区的地图。


METAR-TAF: